Time;durP1;ratioP1;P1;durP2;ratioP2;P2;SDS_P1;SDS_P2;PMS_P1;PMS_P2;Temp;Humidity;BMP_temperature;BMP_pressure;BME280_temperature;BME280_humidity;BME280_pressure;Samples;Min_cycle;Max_cycle;Signal;HPM_P1;HPM_P2
2021/04/09 00:01:55;;;;;;;32.67;15.87;;;;;;;4.53;55.55;101027.19;5030190;28;20429;-80
2021/04/09 00:04:20;;;;;;;19.13;13.55;;;;;;;4.52;55.21;101032.59;5013619;28;20029;-79
2021/04/09 00:06:46;;;;;;;21.77;15.30;;;;;;;4.48;55.38;101028.50;5030873;28;20033;-79
2021/04/09 00:09:12;;;;;;;24.85;14.30;;;;;;;4.48;55.18;101032.00;5030723;28;20034;-80
2021/04/09 00:11:40;;;;;;;22.05;15.77;;;;;;;4.55;55.78;101025.28;5029871;28;20037;-79
2021/04/09 00:14:08;;;;;;;22.60;15.10;;;;;;;4.53;55.04;101021.91;5030698;28;20048;-80
2021/04/09 00:16:33;;;;;;;21.65;14.57;;;;;;;4.55;55.59;101022.63;5013551;28;20382;-79
2021/04/09 00:18:59;;;;;;;24.40;15.37;;;;;;;4.53;56.10;101019.25;5030557;28;20037;-80
2021/04/09 00:21:25;;;;;;;24.73;14.00;;;;;;;4.56;56.18;101023.47;5030211;28;20049;-77
2021/04/09 00:23:50;;;;;;;26.17;14.93;;;;;;;4.57;56.13;101027.81;5031133;28;20044;-78
2021/04/09 00:26:15;;;;;;;24.90;15.63;;;;;;;4.63;55.85;101008.81;5029834;28;20120;-79
2021/04/09 00:28:41;;;;;;;26.77;16.03;;;;;;;4.60;55.28;101011.69;5030705;28;20095;-77
2021/04/09 00:31:07;;;;;;;22.17;15.10;;;;;;;4.58;56.02;101003.88;5015432;28;20140;-77
2021/04/09 00:33:33;;;;;;;23.85;15.40;;;;;;;4.65;54.90;100999.78;5034360;28;20091;-78
2021/04/09 00:35:58;;;;;;;24.90;16.67;;;;;;;4.66;54.72;100984.78;5033762;28;20140;-79
2021/04/09 00:38:24;;;;;;;23.57;15.27;;;;;;;4.67;55.46;100990.91;5033104;28;20037;-79
2021/04/09 00:40:49;;;;;;;26.25;16.85;;;;;;;4.68;54.82;100984.66;5034144;28;20037;-79
2021/04/09 00:43:15;;;;;;;28.73;16.90;;;;;;;4.69;55.18;100989.00;5034526;28;20072;-78
2021/04/09 00:45:40;;;;;;;26.67;17.47;;;;;;;4.67;54.41;100978.53;5033593;28;20284;-79
2021/04/09 00:48:06;;;;;;;25.93;16.27;;;;;;;4.70;55.05;100980.09;5033613;28;20095;-78
2021/04/09 00:50:33;;;;;;;25.13;16.13;;;;;;;4.71;54.43;100995.03;5033247;28;20052;-63
2021/04/09 00:53:00;;;;;;;22.88;14.93;;;;;;;4.70;54.39;100982.75;5033817;28;20064;-63
2021/04/09 00:55:27;;;;;;;26.73;14.90;;;;;;;4.73;54.75;100977.19;5032356;28;20037;-64
2021/04/09 00:57:55;;;;;;;28.42;16.55;;;;;;;4.70;54.78;100977.44;5032308;28;20115;-64
2021/04/09 01:00:21;;;;;;;23.88;15.90;;;;;;;4.70;54.83;100977.44;5032694;28;20095;-64
2021/04/09 01:02:46;;;;;;;26.13;16.52;;;;;;;4.67;56.46;100973.25;5032589;28;20116;-64
2021/04/09 01:05:15;;;;;;;36.05;16.05;;;;;;;4.58;57.76;100958.09;5033578;28;20440;-64
2021/04/09 01:07:40;;;;;;;26.92;16.17;;;;;;;4.52;58.06;100961.19;5033144;28;20077;-63
2021/04/09 01:10:08;;;;;;;28.35;16.25;;;;;;;4.55;58.37;100951.22;5033331;28;20127;-64
2021/04/09 01:12:33;;;;;;;24.23;16.17;;;;;;;4.47;58.78;100950.13;5033311;28;20041;-64
2021/04/09 01:14:59;;;;;;;28.67;17.63;;;;;;;4.48;58.76;100939.44;5032396;28;20139;-64
2021/04/09 01:17:42;;;;;;;26.15;15.88;;;;;;;4.52;57.42;100943.53;5015700;28;20449;-64
2021/04/09 01:20:25;;;;;;;23.98;14.35;;;;;;;4.52;57.74;100938.25;5033310;28;20041;-64
2021/04/09 01:23:06;;;;;;;25.65;15.95;;;;;;;4.54;57.22;100931.06;5033259;28;20065;-64
2021/04/09 01:25:55;;;;;;;28.30;17.42;;;;;;;4.53;56.69;100932.00;5032304;28;20370;-64
2021/04/09 01:28:22;;;;;;;22.35;14.93;;;;;;;4.52;57.36;100927.69;5032794;28;20041;-64
2021/04/09 01:31:21;;;;;;;26.60;14.68;;;;;;;4.57;57.49;100928.16;5015462;28;20072;-64
2021/04/09 01:33:53;;;;;;;19.88;13.90;;;;;;;4.58;56.73;100921.91;5031997;28;20049;-64
2021/04/09 01:36:36;;;;;;;30.05;15.80;;;;;;;4.57;56.75;100914.09;5032870;28;20037;-64
2021/04/09 01:39:09;;;;;;;21.42;13.85;;;;;;;4.54;56.77;100903.75;5032501;28;20456;-64
2021/04/09 01:41:39;;;;;;;26.73;16.05;;;;;;;4.53;57.26;100894.97;5032356;28;20044;-64
2021/04/09 01:44:07;;;;;;;23.13;14.70;;;;;;;4.52;56.80;100893.31;5032780;28;20454;-64
2021/04/09 01:46:40;;;;;;;23.13;13.90;;;;;;;4.54;56.42;100886.09;5032783;28;20031;-64
2021/04/09 01:49:06;;;;;;;25.27;15.73;;;;;;;4.51;56.83;100891.59;5032543;28;20049;-64
2021/04/09 01:51:33;;;;;;;28.70;15.88;;;;;;;4.46;57.57;100893.78;5031594;28;20108;-64
2021/04/09 01:53:58;;;;;;;29.65;16.85;;;;;;;4.43;56.80;100881.63;5031634;28;20049;-64
2021/04/09 01:56:26;;;;;;;27.38;14.70;;;;;;;4.46;58.10;100875.25;5031518;28;20199;-64
2021/04/09 01:58:52;;;;;;;22.65;14.07;;;;;;;4.40;58.96;100881.03;5032385;28;20057;-64
2021/04/09 02:01:19;;;;;;;26.67;16.08;;;;;;;4.40;58.39;100883.66;5032527;28;20029;-63
2021/04/09 02:03:46;;;;;;;23.88;15.55;;;;;;;4.28;59.43;100856.38;5031451;28;20037;-63
2021/04/09 02:06:13;;;;;;;28.58;16.38;;;;;;;4.19;60.13;100850.03;5031289;28;20040;-63
2021/04/09 02:08:39;;;;;;;24.20;16.48;;;;;;;4.08;60.83;100857.94;5032034;28;20034;-63
2021/04/09 02:11:05;;;;;;;24.93;15.80;;;;;;;4.02;60.98;100850.47;5014829;28;20171;-63
2021/04/09 02:13:32;;;;;;;26.77;16.20;;;;;;;4.04;59.83;100845.91;5032149;28;20375;-63
2021/04/09 02:15:58;;;;;;;23.67;15.52;;;;;;;4.01;60.75;100835.59;5031189;28;20372;-63
2021/04/09 02:18:24;;;;;;;29.98;16.35;;;;;;;3.97;60.20;100836.78;5030893;28;20033;-64
2021/04/09 02:20:50;;;;;;;24.83;15.25;;;;;;;3.94;60.04;100823.81;5031993;28;20565;-64
2021/04/09 02:23:16;;;;;;;29.02;17.13;;;;;;;3.90;60.24;100815.28;5032034;28;20044;-64
2021/04/09 02:25:42;;;;;;;23.23;15.23;;;;;;;3.93;60.17;100815.06;5031125;28;20037;-64
2021/04/09 02:28:08;;;;;;;26.50;16.00;;;;;;;3.93;60.25;100800.97;5014301;28;20341;-64
2021/04/09 02:30:33;;;;;;;27.70;16.95;;;;;;;3.97;59.39;100791.88;5031919;28;20033;-64
2021/04/09 02:32:59;;;;;;;31.03;14.57;;;;;;;3.98;59.87;100798.81;5031921;28;20129;-64
2021/04/09 02:35:24;;;;;;;26.33;16.37;;;;;;;4.02;59.12;100782.63;5030681;28;20409;-64
2021/04/09 02:37:51;;;;;;;29.23;15.20;;;;;;;4.06;58.99;100795.59;5031581;28;20092;-64
2021/04/09 02:40:20;;;;;;;28.48;15.15;;;;;;;4.08;58.82;100770.75;5030730;28;20044;-64
2021/04/09 02:42:48;;;;;;;21.45;13.80;;;;;;;4.12;58.64;100780.13;5031630;28;20037;-64
2021/04/09 02:45:15;;;;;;;32.63;16.58;;;;;;;4.12;58.47;100782.75;5031736;28;20070;-64
2021/04/09 02:47:43;;;;;;;23.17;13.82;;;;;;;4.16;58.83;100784.19;5031345;28;20061;-64
2021/04/09 02:50:30;;;;;;;25.30;15.23;;;;;;;4.20;58.49;100769.78;5030617;28;20496;-64
2021/04/09 02:53:01;;;;;;;20.65;13.90;;;;;;;4.29;57.62;100772.66;5030483;28;20121;-64
2021/04/09 02:55:30;;;;;;;30.77;15.18;;;;;;;4.34;58.14;100759.94;5029759;28;20536;-64
2021/04/09 02:57:56;;;;;;;27.60;14.35;;;;;;;4.33;57.84;100768.78;5031235;28;20091;-64
2021/04/09 03:00:23;;;;;;;21.95;14.80;;;;;;;4.30;58.07;100753.19;5031369;28;20516;-64
2021/04/09 03:02:49;;;;;;;23.13;14.88;;;;;;;4.30;57.68;100766.41;5030582;28;20099;-64
2021/04/09 03:05:15;;;;;;;;;;;;;;;4.33;57.34;100764.38;5030976;28;20041;-64
2021/04/09 03:07:41;;;;;;;;;;;;;;;4.34;57.44;100754.63;5030703;28;20327;-64
2021/04/09 03:10:08;;;;;;;;;;;;;;;4.41;56.73;100750.53;5030849;28;19912;-64
2021/04/09 03:12:34;;;;;;;25.80;13.68;;;;;;;4.43;57.40;100749.44;5031237;28;19913;-64
2021/04/09 03:15:00;;;;;;;22.88;13.50;;;;;;;4.44;56.81;100745.00;5031235;28;20057;-64
2021/04/09 03:17:39;;;;;;;24.20;14.55;;;;;;;4.41;57.13;100739.97;5013714;28;20056;-64
2021/04/09 03:20:09;;;;;;;25.75;14.75;;;;;;;4.43;57.21;100738.03;5013857;28;20128;-64
2021/04/09 03:22:34;;;;;;;23.38;14.27;;;;;;;4.46;56.93;100732.50;5013823;28;20053;-64
2021/04/09 03:24:59;;;;;;;23.70;13.60;;;;;;;4.46;56.76;100731.66;5031270;28;20064;-64
2021/04/09 03:27:25;;;;;;;28.43;13.27;;;;;;;4.50;56.03;100717.25;5030862;28;20098;-64
2021/04/09 03:29:50;;;;;;;24.15;14.30;;;;;;;4.50;56.92;100718.09;5030994;28;20045;-64
2021/04/09 03:32:17;;;;;;;30.80;14.27;;;;;;;4.52;57.47;100715.28;5030197;28;20052;-64
2021/04/09 03:34:42;;;;;;;23.50;14.25;;;;;;;4.53;56.53;100712.53;5031029;28;20052;-64
2021/04/09 03:37:08;;;;;;;30.65;14.35;;;;;;;4.54;56.95;100710.72;5031065;28;20044;-64
2021/04/09 03:39:34;;;;;;;22.48;14.23;;;;;;;4.57;56.30;100702.56;5029857;28;20041;-64
2021/04/09 03:42:01;;;;;;;;;;;;;;;4.60;56.28;100695.19;5031337;28;20037;-64
2021/04/09 03:44:27;;;;;;;23.40;13.27;;;;;;;4.59;56.21;100696.19;5030065;28;20003;-64
2021/04/09 03:46:52;;;;;;;27.20;14.20;;;;;;;4.57;56.36;100694.63;5030951;28;20129;-64
2021/04/09 03:49:17;;;;;;;26.23;13.00;;;;;;;4.56;56.27;100691.13;5029774;28;20116;-64
2021/04/09 03:51:43;;;;;;;22.67;13.50;;;;;;;4.58;56.64;100699.78;5030066;28;20041;-64
2021/04/09 03:54:08;;;;;;;22.47;12.87;;;;;;;4.59;56.22;100698.81;5030904;28;20033;-64
2021/04/09 03:56:33;;;;;;;29.47;14.10;;;;;;;4.55;56.53;100688.63;5030690;28;20034;-64
2021/04/09 03:58:59;;;;;;;23.37;14.60;;;;;;;4.51;57.37;100688.03;5030609;28;20065;-64
2021/04/09 04:01:28;;;;;;;24.73;13.17;;;;;;;4.54;56.80;100681.63;5046086;28;20416;-64
2021/04/09 04:03:53;;;;;;;23.95;13.70;;;;;;;4.56;57.48;100685.84;5049836;28;20037;-64
2021/04/09 04:06:19;;;;;;;24.73;13.20;;;;;;;4.54;57.49;100690.44;5053230;28;20098;-64
2021/04/09 04:08:45;;;;;;;25.80;14.47;;;;;;;4.55;58.02;100685.97;5054209;28;20108;-64
2021/04/09 04:11:10;;;;;;;21.75;13.02;;;;;;;4.56;57.62;100677.91;5053536;28;20458;-64
2021/04/09 04:13:36;;;;;;;22.33;12.77;;;;;;;4.57;57.83;100682.25;5053488;28;20041;-64
2021/04/09 04:16:01;;;;;;;22.73;14.40;;;;;;;4.60;57.78;100687.28;5054514;28;20397;-64
2021/04/09 04:18:27;;;;;;;25.75;13.68;;;;;;;4.58;57.00;100677.78;5054191;28;20029;-64
2021/04/09 04:20:52;;;;;;;22.93;12.73;;;;;;;4.59;56.86;100679.47;5053527;28;20051;-64
2021/04/09 04:23:18;;;;;;;22.43;12.87;;;;;;;4.56;57.00;100677.91;5053359;28;20025;-64
2021/04/09 04:25:43;;;;;;;27.48;13.57;;;;;;;4.57;57.06;100681.41;5053130;28;20509;-64
2021/04/09 04:28:09;;;;;;;22.87;12.87;;;;;;;4.57;57.57;100682.25;5053096;28;20047;-64
2021/04/09 04:30:34;;;;;;;26.43;14.07;;;;;;;4.53;58.13;100680.81;5053291;28;20377;-64
2021/04/09 04:32:59;;;;;;;22.80;14.00;;;;;;;4.58;57.67;100673.34;5054217;28;20389;-64
2021/04/09 04:35:25;;;;;;;23.33;12.80;;;;;;;4.55;57.22;100675.41;5054043;28;20116;-63
2021/04/09 04:37:50;;;;;;;24.80;12.23;;;;;;;4.53;57.55;100669.41;5052770;28;20454;-63
2021/04/09 04:40:16;;;;;;;23.70;11.97;;;;;;;4.53;57.66;100680.81;5053949;28;20153;-63
2021/04/09 04:42:41;;;;;;;24.10;12.85;;;;;;;4.55;57.59;100673.59;5052921;28;20040;-63
2021/04/09 04:45:07;;;;;;;24.30;14.03;;;;;;;4.52;57.47;100683.56;5052935;28;20049;-63
2021/04/09 04:47:33;;;;;;;25.05;13.20;;;;;;;4.50;58.61;100680.22;5053473;28;20112;-63
2021/04/09 04:49:58;;;;;;;23.43;13.53;;;;;;;4.50;57.58;100669.66;5053790;28;20028;-63
2021/04/09 04:52:24;;;;;;;25.80;12.87;;;;;;;4.47;57.61;100669.88;5053811;28;20179;-63
2021/04/09 04:54:49;;;;;;;24.20;13.40;;;;;;;4.44;58.88;100670.97;5053562;28;20036;-63
2021/04/09 04:57:14;;;;;;;23.60;13.30;;;;;;;4.43;58.41;100669.31;5053415;28;20620;-63
2021/04/09 04:59:40;;;;;;;25.63;13.27;;;;;;;4.45;58.38;100662.09;5052406;28;20144;-63
2021/04/09 05:02:05;;;;;;;23.50;13.00;;;;;;;4.38;58.40;100660.91;5052644;28;20069;-63
2021/04/09 05:04:30;;;;;;;29.20;14.17;;;;;;;4.36;58.36;100662.84;5052657;28;20036;-63
2021/04/09 05:06:56;;;;;;;29.77;14.10;;;;;;;4.37;58.12;100661.88;5053504;28;20055;-64
2021/04/09 05:09:21;;;;;;;22.80;12.60;;;;;;;4.39;58.45;100662.59;5052351;28;20098;-64
2021/04/09 05:11:46;;;;;;;24.53;13.40;;;;;;;4.33;58.39;100665.72;5053267;28;20044;-64
2021/04/09 05:14:12;;;;;;;27.63;14.77;;;;;;;4.33;58.85;100660.44;5035731;28;20028;-64
2021/04/09 05:16:37;;;;;;;24.53;13.63;;;;;;;4.26;58.20;100672.47;5052398;28;20042;-64
2021/04/09 05:19:02;;;;;;;21.27;13.33;;;;;;;4.26;58.89;100668.03;5052006;28;20131;-64
2021/04/09 05:21:28;;;;;;;27.07;13.90;;;;;;;4.22;59.34;100675.34;5052217;28;20036;-64
2021/04/09 05:23:53;;;;;;;25.83;13.60;;;;;;;4.18;59.66;100671.28;5052218;28;20127;-64
2021/04/09 05:26:18;;;;;;;29.27;13.83;;;;;;;4.15;59.75;100660.97;5052022;28;20037;-64
2021/04/09 05:28:44;;;;;;;24.03;14.57;;;;;;;4.18;60.47;100659.88;5051953;28;20057;-64
2021/04/09 05:31:09;;;;;;;22.10;13.47;;;;;;;4.13;59.91;100657.59;5052145;28;20032;-64
2021/04/09 05:33:34;;;;;;;22.93;14.70;;;;;;;4.07;60.25;100663.38;5052805;28;20029;-64
2021/04/09 05:36:00;;;;;;;24.57;14.23;;;;;;;4.07;61.01;100660.72;5052930;28;20374;-64
2021/04/09 05:38:25;;;;;;;27.43;15.07;;;;;;;4.10;61.65;100657.84;5052696;28;20044;-64
2021/04/09 05:40:50;;;;;;;26.17;15.43;;;;;;;3.97;63.29;100651.84;5052666;28;20072;-64
2021/04/09 05:43:16;;;;;;;31.80;15.80;;;;;;;3.91;64.02;100657.63;5052868;28;20029;-64
2021/04/09 05:45:41;;;;;;;29.07;15.30;;;;;;;3.87;64.50;100651.75;5051850;28;20442;-64
2021/04/09 05:48:08;;;;;;;24.43;15.73;;;;;;;3.90;64.63;100648.03;5052451;28;20064;-64
2021/04/09 05:50:34;;;;;;;25.40;15.23;;;;;;;3.91;63.95;100654.97;5052493;28;20091;-64
2021/04/09 05:53:00;;;;;;;26.52;14.00;;;;;;;3.89;63.68;100656.94;5052609;28;20374;-64
2021/04/09 05:55:25;;;;;;;26.83;13.77;;;;;;;3.92;62.59;100648.75;5051433;28;20052;-64
2021/04/09 05:57:51;;;;;;;24.35;13.55;;;;;;;3.94;62.39;100652.94;5051122;28;20033;-64
2021/04/09 06:00:17;;;;;;;26.20;13.87;;;;;;;3.96;62.81;100640.47;5052475;28;20036;-64
2021/04/09 06:02:42;;;;;;;28.40;15.25;;;;;;;3.90;62.60;100640.09;5052368;28;20056;-64
2021/04/09 06:05:08;;;;;;;23.57;13.77;;;;;;;3.95;62.51;100643.22;5052399;28;20041;-64
2021/04/09 06:07:34;;;;;;;25.70;13.15;;;;;;;4.01;62.70;100632.16;5052047;28;20037;-63
2021/04/09 06:09:59;;;;;;;24.30;14.03;;;;;;;4.30;61.88;100632.44;5051251;28;20102;-64
2021/04/09 06:12:25;;;;;;;36.83;14.40;;;;;;;4.33;62.11;100631.34;5052329;28;20104;-64
2021/04/09 06:14:52;;;;;;;23.23;15.15;;;;;;;4.20;61.43;100624.44;5051260;28;20477;-64
2021/04/09 06:17:18;;;;;;;23.65;13.85;;;;;;;4.28;61.87;100638.81;5052139;28;20032;-64
2021/04/09 06:19:45;;;;;;;23.52;14.27;;;;;;;4.13;61.44;100625.88;5050871;28;20052;-64
2021/04/09 06:22:10;;;;;;;22.38;13.85;;;;;;;4.09;62.27;100629.72;5052057;28;20048;-64
2021/04/09 06:24:37;;;;;;;31.30;14.67;;;;;;;4.13;61.84;100625.88;5051886;28;20034;-64
2021/04/09 06:27:03;;;;;;;23.55;13.18;;;;;;;4.36;61.97;100633.78;5051846;28;20041;-64
2021/04/09 06:29:29;;;;;;;22.75;14.13;;;;;;;4.29;61.77;100622.03;5050461;28;20037;-64
2021/04/09 06:31:55;;;;;;;28.45;14.52;;;;;;;4.39;61.51;100625.56;5051873;28;20046;-64
2021/04/09 06:34:20;;;;;;;24.60;13.87;;;;;;;4.49;61.56;100626.50;5034249;28;20045;-64
2021/04/09 06:36:45;;;;;;;25.90;13.67;;;;;;;4.53;61.19;100625.28;5050687;28;20048;-64
2021/04/09 06:39:11;;;;;;;26.40;13.53;;;;;;;4.59;60.76;100621.31;5051456;28;20036;-65
2021/04/09 06:41:36;;;;;;;29.27;15.53;;;;;;;4.67;61.34;100624.16;5051742;28;20032;-64
2021/04/09 06:44:02;;;;;;;27.83;14.67;;;;;;;4.71;61.34;100622.94;5050763;28;20454;-64
2021/04/09 06:46:28;;;;;;;26.10;13.68;;;;;;;4.70;60.97;100615.13;5051709;28;20540;-64
2021/04/09 06:48:55;;;;;;;26.47;13.90;;;;;;;4.65;61.24;100621.63;5033765;28;20037;-64
2021/04/09 06:51:21;;;;;;;24.25;13.73;;;;;;;4.67;61.16;100612.72;5050564;28;20370;-64
2021/04/09 06:53:48;;;;;;;27.30;15.00;;;;;;;4.68;61.05;100622.34;5050411;28;20033;-64
2021/04/09 06:56:15;;;;;;;22.38;15.07;;;;;;;4.76;61.16;100618.09;5050499;28;20051;-64
2021/04/09 06:58:44;;;;;;;28.02;13.70;;;;;;;4.89;60.92;100617.06;5051148;28;20040;-64
2021/04/09 07:01:10;;;;;;;32.42;14.55;;;;;;;4.79;61.21;100615.19;5050561;28;20060;-64
2021/04/09 07:03:37;;;;;;;23.70;13.25;;;;;;;4.67;60.91;100618.84;5050347;28;20461;-64
2021/04/09 07:06:03;;;;;;;25.90;14.10;;;;;;;4.70;61.06;100617.75;5051259;28;20082;-64
2021/04/09 07:08:29;;;;;;;28.83;14.93;;;;;;;4.65;61.00;100613.69;5050989;28;20048;-64
2021/04/09 07:10:55;;;;;;;24.75;13.20;;;;;;;4.78;61.51;100616.16;5051313;28;20154;-63
2021/04/09 07:13:21;;;;;;;26.63;14.80;;;;;;;4.85;61.66;100617.31;5050301;28;20481;-64
2021/04/09 07:15:46;;;;;;;30.00;14.40;;;;;;;5.01;60.67;100621.31;5050216;28;20041;-64
2021/04/09 07:18:15;;;;;;;27.98;14.43;;;;;;;5.12;60.91;100615.13;5050944;28;20039;-64
2021/04/09 07:20:41;;;;;;;25.08;15.00;;;;;;;5.30;60.89;100621.50;5050226;28;20037;-64
2021/04/09 07:23:08;;;;;;;26.60;13.85;;;;;;;5.47;60.18;100618.22;5051179;28;20470;-64
2021/04/09 07:25:36;;;;;;;25.25;12.90;;;;;;;5.38;60.56;100619.00;5050295;28;20041;-64
2021/04/09 07:28:13;;;;;;;31.27;14.65;;;;;;;5.39;60.39;100617.22;5050724;28;20036;-64
2021/04/09 07:30:49;;;;;;;25.40;13.23;;;;;;;5.57;60.72;100618.28;5050319;28;20041;-64
2021/04/09 07:33:16;;;;;;;21.58;12.98;;;;;;;5.65;60.60;100614.97;5050006;28;20079;-64
2021/04/09 07:35:56;;;;;;;22.73;13.85;;;;;;;5.74;60.10;100615.97;5050971;28;20461;-64
2021/04/09 07:38:32;;;;;;;21.67;12.93;;;;;;;5.73;59.88;100617.75;5050124;28;20168;-64
2021/04/09 07:40:58;;;;;;;;;;;;;;;5.86;59.96;100604.28;5052558;28;20042;-64
2021/04/09 07:43:27;;;;;;;26.15;14.90;;;;;;;5.85;60.29;100614.06;5055026;28;19923;-64
2021/04/09 07:45:56;;;;;;;25.50;13.50;;;;;;;5.89;59.40;100612.78;5037027;28;20037;-64
2021/04/09 07:48:31;;;;;;;25.50;14.20;;;;;;;5.76;60.79;100614.00;5054705;28;20037;-64
2021/04/09 07:50:57;;;;;;;30.20;13.52;;;;;;;5.79;60.78;100614.59;5053864;28;20037;-64
2021/04/09 07:53:29;;;;;;;29.17;14.77;;;;;;;5.88;60.32;100605.00;5053980;28;20036;-64
2021/04/09 07:56:01;;;;;;;24.30;13.73;;;;;;;5.90;60.28;100598.59;5052496;28;20033;-64
2021/04/09 07:58:27;;;;;;;28.42;13.65;;;;;;;5.92;60.08;100603.72;5054432;28;20041;-64
2021/04/09 08:00:53;;;;;;;22.80;12.73;;;;;;;5.81;60.48;100593.28;5037251;28;20210;-64
2021/04/09 08:03:29;;;;;;;23.55;14.75;;;;;;;5.99;61.09;100601.41;5054794;28;20049;-64
2021/04/09 08:06:13;;;;;;;22.98;14.20;;;;;;;6.26;60.25;100592.81;5037044;28;20124;-64
2021/04/09 08:08:46;;;;;;;21.10;12.80;;;;;;;6.72;59.89;100591.28;5054341;28;20453;-64
2021/04/09 08:11:32;;;;;;;27.02;13.73;;;;;;;6.73;59.09;100595.59;5054607;28;20041;-64
2021/04/09 08:14:10;;;;;;;22.90;13.00;;;;;;;6.64;60.12;100605.22;5054452;28;20365;-64
2021/04/09 08:16:50;;;;;;;24.38;13.00;;;;;;;6.79;59.57;100612.75;5054526;28;20052;-64
2021/04/09 08:19:15;;;;;;;22.85;13.48;;;;;;;6.63;59.94;100611.53;5054014;28;20037;-64
2021/04/09 08:21:45;;;;;;;24.33;12.70;;;;;;;6.38;60.57;100614.75;5053455;28;20037;-64
2021/04/09 08:24:11;;;;;;;20.70;12.80;;;;;;;6.49;60.09;100611.97;5054301;28;20033;-64
2021/04/09 08:26:38;;;;;;;21.95;13.48;;;;;;;6.71;60.06;100613.47;5036708;28;20151;-64
2021/04/09 08:29:07;;;;;;;24.73;14.43;;;;;;;6.68;59.61;100619.91;5053029;28;20424;-64
2021/04/09 08:31:34;;;;;;;24.48;12.27;;;;;;;6.51;59.90;100612.66;5036562;28;20056;-64
2021/04/09 08:33:59;;;;;;;25.77;13.68;;;;;;;6.62;60.57;100603.69;5036452;28;20339;-64
2021/04/09 08:36:28;;;;;;;21.97;13.07;;;;;;;6.74;59.61;100603.44;5053256;28;20036;-64
2021/04/09 08:38:54;;;;;;;22.13;12.85;;;;;;;6.69;60.38;100610.13;5052863;28;20283;-64
2021/04/09 08:41:21;;;;;;;21.13;13.00;;;;;;;6.98;60.14;100620.72;5053985;28;20044;-64
2021/04/09 08:43:46;;;;;;;26.75;12.07;;;;;;;6.72;60.96;100612.50;5036400;28;20130;-64
2021/04/09 08:46:12;;;;;;;22.60;12.80;;;;;;;6.50;60.98;100621.56;5036246;28;20079;-64
2021/04/09 08:48:39;;;;;;;27.40;12.27;;;;;;;6.68;61.54;100603.16;5052679;28;20029;-64
2021/04/09 08:51:05;;;;;;;20.50;12.63;;;;;;;6.89;61.22;100597.69;5052800;28;20454;-65
2021/04/09 08:53:32;;;;;;;22.13;13.02;;;;;;;6.74;61.22;100602.56;5053662;28;20059;-63
2021/04/09 08:55:57;;;;;;;;;;;;;;;6.83;61.87;100600.91;5053037;28;20112;-65
2021/04/09 08:58:23;;;;;;;;;;;;;;;6.91;61.74;100614.31;5053856;28;20298;-64
2021/04/09 09:00:53;;;;;;;22.70;12.70;;;;;;;6.94;62.32;100614.84;5052483;28;20413;-64
2021/04/09 09:03:27;;;;;;;20.35;12.63;;;;;;;6.90;62.30;100610.78;5052622;28;20045;-64
2021/04/09 09:05:56;;;;;;;21.08;13.00;;;;;;;7.03;64.00;100618.47;5053510;28;20024;-64
2021/04/09 09:08:22;;;;;;;20.92;12.48;;;;;;;7.04;62.19;100617.47;5052162;28;20362;-64
2021/04/09 09:10:48;;;;;;;35.00;13.07;;;;;;;7.23;61.92;100621.91;5053495;28;20037;-64
2021/04/09 09:13:21;;;;;;;23.05;12.32;;;;;;;7.08;61.57;100615.38;5052352;28;20112;-64
2021/04/09 09:15:46;;;;;;;24.65;13.88;;;;;;;6.81;62.46;100619.59;5052181;28;20434;-63
2021/04/09 09:18:33;;;;;;;22.80;13.77;;;;;;;7.03;61.99;100618.47;5052142;28;20052;-63
2021/04/09 09:21:21;;;;;;;22.58;13.48;;;;;;;7.21;62.49;100620.38;5053283;28;20477;-64
2021/04/09 09:24:16;;;;;;;24.38;14.00;;;;;;;7.29;62.10;100623.16;5052008;28;20033;-64
2021/04/09 09:26:45;;;;;;;25.25;12.10;;;;;;;7.24;62.44;100615.63;5053192;28;20072;-64
2021/04/09 09:29:28;;;;;;;23.45;12.70;;;;;;;7.27;62.21;100622.47;5035185;28;20060;-64
2021/04/09 09:32:07;;;;;;;22.85;13.65;;;;;;;7.32;62.37;100625.53;5052998;28;20101;-63
2021/04/09 09:34:41;;;;;;;27.30;14.10;;;;;;;7.46;62.77;100613.59;5052428;28;20048;-63
2021/04/09 09:37:11;;;;;;;22.02;12.35;;;;;;;7.52;62.67;100613.03;5051580;28;20171;-64
2021/04/09 09:40:05;;;;;;;20.42;11.65;;;;;;;7.46;62.04;100614.44;5035037;28;20047;-64
2021/04/09 09:42:30;;;;;;;23.33;12.80;;;;;;;7.36;63.39;100613.63;5052750;28;20366;-64
2021/04/09 09:45:06;;;;;;;22.33;13.53;;;;;;;7.31;63.32;100614.06;5051849;28;20036;-64
2021/04/09 09:47:33;;;;;;;26.42;13.38;;;;;;;7.29;63.90;100620.50;5051509;28;20040;-64
2021/04/09 09:50:04;;;;;;;24.80;13.02;;;;;;;7.22;63.89;100622.91;5052739;28;20041;-64
2021/04/09 09:53:06;;;;;;;22.83;12.80;;;;;;;7.31;64.00;100621.22;5052368;28;20041;-64
2021/04/09 09:55:44;;;;;;;22.67;13.13;;;;;;;7.08;64.07;100618.88;5052460;28;20037;-64
2021/04/09 09:58:14;;;;;;;27.13;14.02;;;;;;;7.06;64.46;100612.88;5052248;28;20351;-64
2021/04/09 10:00:51;;;;;;;23.05;13.55;;;;;;;7.26;65.60;100607.50;5052453;28;20465;-64
2021/04/09 10:03:23;;;;;;;26.08;14.05;;;;;;;6.96;65.24;100617.38;5050930;28;20047;-64
2021/04/09 10:05:54;;;;;;;23.52;12.30;;;;;;;6.85;66.17;100621.00;5052616;28;20071;-64
2021/04/09 10:08:22;;;;;;;21.00;11.98;;;;;;;6.80;66.74;100614.44;5051112;28;20025;-64
2021/04/09 10:10:53;;;;;;;24.75;12.95;;;;;;;6.90;67.67;100625.88;5051330;28;20033;-64
2021/04/09 10:13:30;;;;;;;23.52;11.68;;;;;;;6.86;67.44;100625.34;5052259;28;20037;-64
2021/04/09 10:16:16;;;;;;;21.83;12.75;;;;;;;6.87;67.89;100623.53;5051958;28;20037;-64
2021/04/09 10:18:44;;;;;;;25.52;13.00;;;;;;;6.88;68.57;100626.06;5051851;28;20407;-64
2021/04/09 10:21:17;;;;;;;24.65;15.13;;;;;;;6.86;69.65;100632.44;5051168;28;20041;-64
2021/04/09 10:23:45;;;;;;;25.55;14.55;;;;;;;6.71;70.91;100627.56;5051208;28;20049;-64
2021/04/09 10:26:12;;;;;;;25.60;13.75;;;;;;;6.46;71.83;100628.13;5051697;28;20029;-64
2021/04/09 10:28:39;;;;;;;25.08;13.07;;;;;;;6.51;72.28;100634.72;5050661;28;20036;-64
2021/04/09 10:31:19;;;;;;;24.42;14.02;;;;;;;6.48;72.42;100640.28;5051693;28;20037;-64
2021/04/09 10:33:50;;;;;;;29.98;14.90;;;;;;;6.49;72.99;100635.81;5050992;28;20041;-64
2021/04/09 10:36:20;;;;;;;22.58;14.80;;;;;;;6.38;72.64;100635.94;5050737;28;20091;-64
2021/04/09 10:39:09;;;;;;;24.55;13.65;;;;;;;6.39;73.58;100634.97;5050456;28;20047;-64
2021/04/09 10:41:39;;;;;;;25.98;13.05;;;;;;;6.29;73.78;100635.78;5051667;28;20101;-64
2021/04/09 10:44:13;;;;;;;23.33;13.48;;;;;;;6.19;75.06;100634.94;5034126;28;20045;-64
2021/04/09 10:46:44;;;;;;;27.27;15.40;;;;;;;5.98;75.84;100637.69;5050663;28;20037;-64
2021/04/09 10:49:11;;;;;;;29.92;15.57;;;;;;;5.99;76.51;100641.16;5051184;28;20037;-64
2021/04/09 10:51:43;;;;;;;24.45;13.88;;;;;;;5.83;76.97;100645.16;5050675;28;20037;-64
2021/04/09 10:54:17;;;;;;;25.38;15.45;;;;;;;5.85;78.28;100660.88;5049191;28;20417;-64
2021/04/09 10:56:49;;;;;;;27.02;14.93;;;;;;;5.83;77.89;100653.09;5050266;28;20564;-64
2021/04/09 10:59:15;;;;;;;30.00;14.75;;;;;;;5.81;78.19;100649.75;5050074;28;20037;-64
2021/04/09 11:01:41;;;;;;;24.98;14.75;;;;;;;5.87;78.56;100651.84;5051100;28;20037;-64
2021/04/09 11:04:07;;;;;;;31.33;16.35;;;;;;;5.92;78.59;100648.78;5051228;28;20116;-64
2021/04/09 11:06:32;;;;;;;23.17;13.00;;;;;;;6.08;79.09;100650.97;5051195;28;20131;-65
2021/04/09 11:09:08;;;;;;;27.05;13.75;;;;;;;6.09;78.80;100650.84;5050071;28;20044;-65
2021/04/09 11:11:36;;;;;;;28.85;14.88;;;;;;;6.10;78.65;100656.97;5033466;28;20079;-64
2021/04/09 11:14:10;;;;;;;29.95;16.33;;;;;;;6.04;79.22;100655.72;5050881;28;20029;-64
2021/04/09 11:16:53;;;;;;;27.75;15.52;;;;;;;5.92;80.19;100659.38;5050580;28;20029;-65
2021/04/09 11:19:36;;;;;;;29.48;17.75;;;;;;;5.90;79.98;100666.66;5050797;28;20039;-64
2021/04/09 11:22:04;;;;;;;31.38;15.73;;;;;;;5.86;80.68;100665.22;5051104;28;20052;-65
2021/04/09 11:24:35;;;;;;;30.58;15.55;;;;;;;5.85;80.86;100656.47;5050091;28;20037;-64
2021/04/09 11:27:04;;;;;;;34.70;15.02;;;;;;;5.87;81.09;100654.47;5050928;28;20052;-64